Time;durP1;ratioP1;P1;durP2;ratioP2;P2;SDS_P1;SDS_P2;PMS_P1;PMS_P2;Temp;Humidity;BMP_temperature;BMP_pressure;BME280_temperature;BME280_humidity;BME280_pressure;Samples;Min_cycle;Max_cycle;Signal;HPM_P1;HPM_P2
2022/01/23 00:00:47;;;;;;;23.70;15.00;;;5.10;99.90;;;;;;4923289;29;20044;-93
2022/01/23 00:03:18;;;;;;;24.10;14.82;;;5.10;99.90;;;;;;4937618;29;20051;-93
2022/01/23 00:05:46;;;;;;;23.08;14.85;;;4.70;99.90;;;;;;4937758;29;20062;-93
2022/01/23 00:08:13;;;;;;;19.83;14.70;;;5.00;99.90;;;;;;4937319;29;20493;-93
2022/01/23 00:10:39;;;;;;;22.83;14.93;;;4.60;99.90;;;;;;4937262;29;20036;-93
2022/01/23 00:13:32;;;;;;;19.77;13.57;;;4.80;99.90;;;;;;4936617;29;20408;-94
2022/01/23 00:18:35;;;;;;;20.38;13.82;;;4.60;99.90;;;;;;4937087;29;20046;-93
2022/01/23 00:21:01;;;;;;;21.60;14.93;;;4.50;99.90;;;;;;4936208;29;20118;-93
2022/01/23 00:30:18;;;;;;;21.90;14.60;;;4.60;99.90;;;;;;4935742;29;20040;-93
2022/01/23 00:31:47;;;;;;;23.80;15.10;;;4.80;99.90;;;;;;4937045;29;20601;-93
2022/01/23 00:34:12;;;;;;;23.60;16.65;;;4.60;99.90;;;;;;4937024;29;20043;-93
2022/01/23 00:36:38;;;;;;;27.25;17.25;;;4.50;99.90;;;;;;4936497;29;20059;-93
2022/01/23 00:39:04;;;;;;;27.00;17.08;;;4.90;99.90;;;;;;4936010;29;20031;-93
2022/01/23 00:41:30;;;;;;;23.65;15.65;;;4.40;99.90;;;;;;4935187;29;20126;-93
2022/01/23 00:43:56;;;;;;;21.17;14.80;;;4.40;99.90;;;;;;4936671;29;20488;-93
2022/01/23 00:46:29;;;;;;;23.10;15.90;;;4.40;99.90;;;;;;4936401;29;20110;-93
2022/01/23 00:51:27;;;;;;;22.13;14.60;;;4.50;99.90;;;;;;4936350;29;20564;-93
2022/01/23 00:53:54;;;;;;;24.35;15.07;;;4.40;99.90;;;;;;4934784;29;20114;-93
2022/01/23 00:56:20;;;;;;;20.95;15.32;;;4.80;99.90;;;;;;4935986;29;20134;-93
2022/01/23 00:58:46;;;;;;;19.70;14.88;;;4.40;99.90;;;;;;4935461;29;20524;-92
2022/01/23 01:01:13;;;;;;;22.95;14.27;;;4.30;99.90;;;;;;4936159;29;20489;-93
2022/01/23 01:03:38;;;;;;;23.45;15.32;;;4.30;99.90;;;;;;4936064;29;20031;-93
2022/01/23 01:06:04;;;;;;;23.05;14.57;;;4.30;99.90;;;;;;4936979;29;20600;-92
2022/01/23 01:08:30;;;;;;;23.63;15.77;;;4.70;99.90;;;;;;4935032;29;20039;-92
2022/01/23 01:14:09;;;;;;;23.05;14.57;;;4.40;99.90;;;;;;4936035;29;20122;-93
2022/01/23 01:35:37;;;;;;;23.98;16.60;;;4.50;99.90;;;;;;4935917;29;20043;-94
2022/01/23 01:38:03;;;;;;;24.45;16.25;;;5.00;99.90;;;;;;4935698;29;20031;-93
2022/01/23 01:40:29;;;;;;;22.08;16.27;;;4.80;99.90;;;;;;4936147;29;20058;-93
2022/01/23 01:42:55;;;;;;;23.50;15.82;;;4.90;99.90;;;;;;4935604;29;20509;-93
2022/01/23 01:45:23;;;;;;;21.17;16.25;;;4.40;99.90;;;;;;4935899;29;20031;-94
2022/01/23 01:47:52;;;;;;;22.35;15.60;;;4.60;99.90;;;;;;4935271;29;20086;-94
2022/01/23 01:50:18;;;;;;;25.70;15.50;;;4.50;99.90;;;;;;4935425;29;20048;-94
2022/01/23 01:52:44;;;;;;;22.02;16.52;;;4.50;99.90;;;;;;4934664;29;20031;-93
2022/01/23 01:55:14;;;;;;;25.42;16.02;;;4.50;99.90;;;;;;4935386;29;20031;-93
2022/01/23 01:57:44;;;;;;;24.25;16.20;;;4.30;99.90;;;;;;4935347;29;20024;-93
2022/01/23 02:10:37;;;;;;;26.33;16.58;;;4.40;99.90;;;;;;4934782;29;20110;-94
2022/01/23 02:15:59;;;;;;;26.60;17.48;;;4.30;99.90;;;;;;4935702;29;20079;-93
2022/01/23 02:22:25;;;;;;;26.63;16.63;;;4.80;99.90;;;;;;4933199;29;20032;-94
2022/01/23 02:57:08;;;;;;;24.20;16.65;;;4.20;99.90;;;;;;4938623;29;20066;-94
2022/01/23 02:59:37;;;;;;;31.83;20.73;;;4.70;99.90;;;;;;4939001;29;20324;-93
2022/01/23 03:04:35;;;;;;;30.15;18.13;;;4.10;99.90;;;;;;4938412;29;20030;-94
2022/01/23 03:14:53;;;;;;;25.80;17.25;;;4.10;99.90;;;;;;4938063;29;20028;-93
2022/01/23 03:28:34;;;;;;;26.77;17.40;;;4.20;99.90;;;;;;4937988;29;20039;-93
2022/01/23 03:31:08;;;;;;;23.27;16.52;;;4.40;99.90;;;;;;4937552;29;20059;-94
2022/01/23 03:33:36;;;;;;;26.48;17.45;;;4.10;99.90;;;;;;4936838;29;20035;-94
2022/01/23 03:36:03;;;;;;;26.08;17.67;;;4.10;99.90;;;;;;4936850;29;20060;-92
2022/01/23 03:38:29;;;;;;;23.95;16.88;;;4.00;99.90;;;;;;4936783;29;20111;-93
2022/01/23 03:40:55;;;;;;;26.75;17.90;;;3.90;99.90;;;;;;4937159;29;20043;-93
2022/01/23 03:43:28;;;;;;;25.02;17.25;;;4.00;99.90;;;;;;4936459;29;20151;-93
2022/01/23 03:50:52;;;;;;;25.40;17.35;;;4.00;99.90;;;;;;4937898;29;20083;-94
2022/01/23 03:53:18;;;;;;;24.63;18.75;;;4.30;99.90;;;;;;4937805;29;20062;-93
2022/01/23 03:55:45;;;;;;;25.85;17.17;;;3.90;99.90;;;;;;4936056;29;20031;-93
2022/01/23 03:58:10;;;;;;;25.27;17.73;;;3.90;99.90;;;;;;4935899;29;20119;-93
2022/01/23 04:00:36;;;;;;;27.25;18.45;;;3.80;99.90;;;;;;4937239;29;20126;-94
2022/01/23 04:03:02;;;;;;;26.48;17.95;;;3.80;99.90;;;;;;4936532;29;20032;-94
2022/01/23 04:05:28;;;;;;;24.33;17.48;;;3.90;99.90;;;;;;4937969;29;20063;-93
2022/01/23 04:07:54;;;;;;;28.75;18.38;;;4.30;99.90;;;;;;4937173;29;20138;-93
2022/01/23 04:10:22;;;;;;;24.63;17.40;;;3.90;99.90;;;;;;4936719;29;20122;-94
2022/01/23 04:12:53;;;;;;;25.73;17.25;;;4.00;99.90;;;;;;4937468;29;20043;-93
2022/01/23 04:45:19;;;;;;;25.80;17.52;;;3.80;99.90;;;;;;4917706;29;20473;-94
2022/01/23 04:48:47;;;;;;;26.98;16.48;;;3.80;99.90;;;;;;4901169;29;20513;-93
2022/01/23 05:04:38;;;;;;;23.80;15.10;;;3.80;99.90;;;;;;4916616;29;20036;-93
2022/01/23 05:07:08;;;;;;;25.60;16.40;;;3.50;99.90;;;;;;4899914;29;20040;-94
2022/01/23 05:09:34;;;;;;;23.17;15.50;;;3.60;99.90;;;;;;4900736;29;20040;-93
2022/01/23 05:12:11;;;;;;;24.58;16.10;;;3.60;99.90;;;;;;4900945;29;20428;-93
2022/01/23 05:14:42;;;;;;;26.40;17.27;;;3.60;99.90;;;;;;4900749;29;20087;-94
2022/01/23 05:17:11;;;;;;;25.02;16.92;;;3.60;99.90;;;;;;4930715;29;20059;-94
2022/01/23 05:19:39;;;;;;;26.45;16.67;;;3.50;99.90;;;;;;4937816;29;20023;-93
2022/01/23 05:24:59;;;;;;;24.35;16.60;;;3.50;99.90;;;;;;4937290;29;20051;-94
2022/01/23 05:27:27;;;;;;;28.92;16.77;;;3.90;99.90;;;;;;4937598;29;20032;-93
2022/01/23 05:29:54;;;;;;;23.90;16.73;;;3.50;99.90;;;;;;4937801;29;20039;-93
2022/01/23 05:32:21;;;;;;;25.95;16.48;;;3.60;99.90;;;;;;4937550;29;20056;-93
2022/01/23 05:34:47;;;;;;;24.73;16.70;;;3.60;99.90;;;;;;4936058;29;20032;-93
2022/01/23 05:37:13;;;;;;;25.77;17.27;;;3.60;99.90;;;;;;4937273;29;20095;-93
2022/01/23 05:39:39;;;;;;;26.92;17.67;;;3.60;99.90;;;;;;4937162;29;20058;-93
2022/01/23 05:42:07;;;;;;;23.92;16.33;;;3.60;99.90;;;;;;4936013;29;20496;-93
2022/01/23 05:44:35;;;;;;;28.20;17.02;;;3.50;99.90;;;;;;4937129;29;20031;-93
2022/01/23 05:47:00;;;;;;;27.95;18.08;;;3.40;99.90;;;;;;4936962;29;20523;-93
2022/01/23 05:49:26;;;;;;;26.95;17.00;;;3.40;99.90;;;;;;4937456;29;20032;-93
2022/01/23 05:51:52;;;;;;;25.67;16.95;;;3.60;99.90;;;;;;4935825;29;20038;-94
2022/01/23 05:54:18;;;;;;;28.95;18.17;;;3.50;99.90;;;;;;4937036;29;20023;-94
2022/01/23 05:56:44;;;;;;;23.42;16.23;;;3.70;99.90;;;;;;4955108;29;20118;-94
2022/01/23 05:59:09;;;;;;;26.02;17.00;;;3.60;99.90;;;;;;4947544;29;20554;-93
2022/01/23 06:01:35;;;;;;;25.17;16.63;;;3.60;99.90;;;;;;4935444;29;20032;-93
2022/01/23 06:04:01;;;;;;;25.70;17.00;;;3.90;99.90;;;;;;4935658;29;20032;-93
2022/01/23 06:06:26;;;;;;;26.83;16.77;;;3.60;99.90;;;;;;4935922;29;20099;-93
2022/01/23 06:08:52;;;;;;;24.20;16.15;;;3.70;99.90;;;;;;4935928;29;20023;-93
2022/01/23 06:11:17;;;;;;;29.92;17.80;;;3.50;99.90;;;;;;4935503;29;20051;-94
2022/01/23 06:13:43;;;;;;;27.30;16.13;;;3.40;99.90;;;;;;4935642;29;20038;-93
2022/01/23 06:16:09;;;;;;;25.40;16.38;;;3.30;99.90;;;;;;4936715;29;20028;-93
2022/01/23 06:18:38;;;;;;;27.85;16.85;;;3.30;99.90;;;;;;4937953;29;20452;-93
2022/01/23 06:21:04;;;;;;;27.70;17.30;;;3.40;99.90;;;;;;4940024;29;20028;-94
2022/01/23 06:23:30;;;;;;;28.58;17.75;;;3.30;99.90;;;;;;4937737;29;20067;-93
2022/01/23 06:26:01;;;;;;;28.30;17.52;;;3.20;99.90;;;;;;4938371;29;20028;-96
2022/01/23 06:28:52;;;;;;;30.00;17.13;;;3.30;99.90;;;;;;4939095;29;20031;-89
2022/01/23 06:31:17;;;;;;;27.00;16.50;;;3.40;99.90;;;;;;4938517;29;20118;-90
2022/01/23 06:33:43;;;;;;;29.75;15.45;;;3.20;99.90;;;;;;4939180;29;20416;-88
2022/01/23 06:36:09;;;;;;;26.83;16.42;;;3.20;99.90;;;;;;4934290;29;20109;-89
2022/01/23 06:38:36;;;;;;;26.50;17.02;;;3.20;99.90;;;;;;4937775;29;20031;-90
2022/01/23 06:41:01;;;;;;;28.02;17.27;;;3.30;99.90;;;;;;4938194;29;20047;-87
2022/01/23 06:43:27;;;;;;;26.17;16.38;;;3.30;99.90;;;;;;4936406;29;20413;-89
2022/01/23 06:45:53;;;;;;;29.75;16.98;;;3.70;99.90;;;;;;4936815;29;20031;-90
2022/01/23 06:48:18;;;;;;;29.65;17.60;;;3.20;99.90;;;;;;4937314;29;20024;-89
2022/01/23 06:50:44;;;;;;;25.67;16.65;;;3.30;99.90;;;;;;4937439;29;20094;-92
2022/01/23 06:53:10;;;;;;;32.90;17.95;;;3.30;99.90;;;;;;4936948;29;20480;-89
2022/01/23 06:55:35;;;;;;;26.60;16.35;;;3.30;99.90;;;;;;4936547;29;20127;-93
2022/01/23 06:58:01;;;;;;;26.77;16.08;;;3.60;99.90;;;;;;4936576;29;20027;-92
2022/01/23 07:00:27;;;;;;;30.48;16.08;;;3.30;99.90;;;;;;4937846;29;20031;-92
2022/01/23 07:02:52;;;;;;;30.05;17.42;;;3.30;99.90;;;;;;4937429;29;20028;-92
2022/01/23 07:05:18;;;;;;;27.13;17.08;;;3.30;99.90;;;;;;4938031;29;20039;-92
2022/01/23 07:07:44;;;;;;;28.70;16.83;;;3.40;99.90;;;;;;4938399;29;20020;-92
2022/01/23 07:10:09;;;;;;;27.17;16.42;;;3.60;99.90;;;;;;4938156;29;20047;-93
2022/01/23 07:12:35;;;;;;;29.10;17.33;;;3.70;99.90;;;;;;4938086;29;20024;-92
2022/01/23 07:15:01;;;;;;;28.85;16.75;;;3.30;99.90;;;;;;4938151;29;20031;-91
2022/01/23 07:17:26;;;;;;;28.60;17.10;;;3.30;99.90;;;;;;4936837;29;20083;-92
2022/01/23 07:19:52;;;;;;;26.38;16.50;;;3.60;99.90;;;;;;4937174;29;20040;-94
2022/01/23 07:22:17;;;;;;;29.33;16.85;;;3.40;99.90;;;;;;4938047;29;20035;-93
2022/01/23 07:24:43;;;;;;;26.75;16.85;;;3.40;99.90;;;;;;4938496;29;20091;-94
2022/01/23 07:27:16;;;;;;;27.98;16.23;;;3.60;99.90;;;;;;4934840;29;20031;-94
2022/01/23 07:29:43;;;;;;;27.10;16.83;;;3.50;99.90;;;;;;4938336;29;20083;-94
2022/01/23 07:32:10;;;;;;;27.27;16.65;;;3.70;99.90;;;;;;4938930;29;20032;-93
2022/01/23 07:34:36;;;;;;;24.65;15.82;;;4.00;99.90;;;;;;4939242;29;20028;-94
2022/01/23 07:37:01;;;;;;;24.10;15.75;;;3.50;99.90;;;;;;4938884;29;20123;-93
2022/01/23 07:39:27;;;;;;;27.90;17.73;;;3.50;99.90;;;;;;4938829;29;20108;-93
2022/01/23 07:41:54;;;;;;;27.33;15.50;;;3.70;99.90;;;;;;4937465;29;20491;-93
2022/01/23 07:44:19;;;;;;;24.13;15.68;;;3.40;99.90;;;;;;4938722;29;20040;-94
2022/01/23 07:46:45;;;;;;;24.90;15.57;;;3.40;99.90;;;;;;4939426;29;20504;-94
2022/01/23 07:49:11;;;;;;;24.90;15.65;;;3.80;99.90;;;;;;4938992;29;20118;-93
2022/01/23 07:51:38;;;;;;;23.58;14.80;;;3.50;99.90;;;;;;4938077;29;20528;-93
2022/01/23 07:54:03;;;;;;;26.02;16.08;;;3.30;99.90;;;;;;4938089;29;20024;-93
2022/01/23 07:56:29;;;;;;;26.38;16.92;;;3.30;99.90;;;;;;4937562;29;20042;-94
2022/01/23 07:58:55;;;;;;;25.10;16.17;;;4.10;99.90;;;;;;4939149;29;20035;-94
2022/01/23 08:01:21;;;;;;;24.52;15.63;;;4.10;99.90;;;;;;4939377;29;20039;-92
2022/01/23 08:03:46;;;;;;;28.48;16.95;;;3.90;99.90;;;;;;4938221;29;20028;-93
2022/01/23 08:06:12;;;;;;;28.42;17.75;;;4.00;99.90;;;;;;4938400;29;20083;-93
2022/01/23 08:08:38;;;;;;;29.20;17.25;;;4.10;99.90;;;;;;4939045;29;20083;-93
2022/01/23 08:11:05;;;;;;;30.27;18.02;;;4.00;99.90;;;;;;4937207;29;20527;-93
2022/01/23 08:13:31;;;;;;;25.02;15.88;;;4.00;99.90;;;;;;4938238;29;20503;-93
2022/01/23 08:15:56;;;;;;;28.80;15.68;;;4.10;99.90;;;;;;4937848;29;20035;-94
2022/01/23 08:18:22;;;;;;;24.73;15.77;;;4.10;99.90;;;;;;4936592;29;20027;-94
2022/01/23 08:20:48;;;;;;;23.67;15.75;;;3.90;99.90;;;;;;4935791;29;20047;-88
2022/01/23 08:23:13;;;;;;;24.38;15.90;;;3.90;99.90;;;;;;4935143;29;20178;-92
2022/01/23 08:25:39;;;;;;;29.05;17.50;;;3.80;99.90;;;;;;4935463;29;20027;-91
2022/01/23 08:28:07;;;;;;;24.55;16.65;;;4.20;99.90;;;;;;4936680;29;20051;-91
2022/01/23 08:30:33;;;;;;;27.25;16.15;;;3.80;99.90;;;;;;4935471;29;20050;-89
2022/01/23 08:32:59;;;;;;;25.95;16.42;;;3.90;99.90;;;;;;4936685;29;20094;-89
2022/01/23 08:35:26;;;;;;;25.27;15.98;;;4.00;99.90;;;;;;4935174;29;20031;-92
2022/01/23 08:37:52;;;;;;;35.35;23.27;;;4.00;99.90;;;;;;4937244;29;20078;-91
2022/01/23 08:40:34;;;;;;;30.10;19.02;;;3.90;99.90;;;;;;4936059;29;20051;-91
2022/01/23 08:43:00;;;;;;;28.02;18.77;;;3.90;99.90;;;;;;4934286;29;20040;-93
2022/01/23 08:45:25;;;;;;;61.17;36.78;;;4.20;99.90;;;;;;4932064;29;20036;-91
2022/01/23 08:47:51;;;;;;;25.73;17.15;;;4.00;99.90;;;;;;4934030;29;20087;-91
2022/01/23 08:50:16;;;;;;;27.23;17.27;;;4.10;99.90;;;;;;4925466;29;20454;-94
2022/01/23 08:52:42;;;;;;;24.98;16.95;;;4.60;99.90;;;;;;4941422;29;20019;-92
2022/01/23 08:55:09;;;;;;;26.92;17.05;;;4.20;99.90;;;;;;4933454;29;20095;-93
2022/01/23 08:57:35;;;;;;;39.47;24.27;;;4.30;99.90;;;;;;4925503;29;20059;-90
2022/01/23 09:00:01;;;;;;;30.52;19.55;;;4.30;99.90;;;;;;4925138;29;20366;-92
2022/01/23 09:02:27;;;;;;;24.58;15.63;;;4.70;99.90;;;;;;4926714;29;20115;-93
2022/01/23 09:04:53;;;;;;;27.42;17.15;;;4.60;99.90;;;;;;4926809;29;20023;-91
2022/01/23 09:07:19;;;;;;;24.00;16.48;;;4.60;99.90;;;;;;4930975;29;20114;-92
2022/01/23 09:09:44;;;;;;;24.23;16.45;;;4.80;99.90;;;;;;4931470;29;20444;-95
2022/01/23 09:12:42;;;;;;;25.48;16.73;;;4.30;99.90;;;;;;4930689;29;20122;-94
2022/01/23 09:15:08;;;;;;;25.10;17.27;;;4.20;99.90;;;;;;4928276;29;20032;-90
2022/01/23 09:17:34;;;;;;;25.73;16.08;;;4.30;99.90;;;;;;4927540;29;20036;-89
2022/01/23 09:20:00;;;;;;;22.65;15.43;;;4.50;99.90;;;;;;4925645;29;20174;-93
2022/01/23 09:22:29;;;;;;;23.35;15.65;;;4.50;99.90;;;;;;4921148;29;20028;-91
2022/01/23 09:24:56;;;;;;;27.40;15.68;;;4.40;99.90;;;;;;4922544;29;20039;-89
2022/01/23 09:27:22;;;;;;;28.20;16.45;;;4.60;99.90;;;;;;4931063;29;20037;-92
2022/01/23 09:29:53;;;;;;;25.00;16.63;;;4.30;99.90;;;;;;4934693;29;20058;-92
2022/01/23 09:32:21;;;;;;;25.00;16.50;;;4.90;99.90;;;;;;4933624;29;20031;-90
2022/01/23 09:34:48;;;;;;;52.22;24.20;;;4.70;99.90;;;;;;4933686;29;20039;-92
2022/01/23 09:37:16;;;;;;;29.10;17.60;;;4.80;99.90;;;;;;4933741;29;20012;-92
2022/01/23 09:39:46;;;;;;;24.02;14.93;;;4.80;99.90;;;;;;4934099;29;20377;-91
2022/01/23 09:42:14;;;;;;;22.23;14.25;;;4.70;99.90;;;;;;4931077;29;20051;-89
2022/01/23 09:44:47;;;;;;;27.55;16.05;;;5.30;99.90;;;;;;4933417;29;20548;-88
2022/01/23 09:47:14;;;;;;;25.58;16.20;;;4.70;99.90;;;;;;4932939;29;20028;-88
2022/01/23 09:49:41;;;;;;;28.23;17.38;;;4.50;99.90;;;;;;4932906;29;20036;-88
2022/01/23 09:52:08;;;;;;;24.65;15.43;;;4.60;99.90;;;;;;4933221;29;20039;-90
2022/01/23 09:54:35;;;;;;;24.48;14.93;;;4.40;99.90;;;;;;4932062;29;20036;-89
2022/01/23 09:57:02;;;;;;;24.10;15.52;;;4.20;99.90;;;;;;4935623;29;20500;-93
2022/01/23 09:59:29;;;;;;;28.85;16.38;;;4.30;99.90;;;;;;4934155;29;20043;-94
2022/01/23 10:01:56;;;;;;;30.05;16.05;;;4.30;99.90;;;;;;4933817;29;20039;-93
2022/01/23 10:04:23;;;;;;;30.80;17.52;;;4.70;99.90;;;;;;4932607;29;20048;-93
2022/01/23 10:06:49;;;;;;;28.60;17.08;;;4.80;99.90;;;;;;4933151;29;20036;-93
2022/01/23 10:09:15;;;;;;;28.50;15.38;;;4.40;99.90;;;;;;4935462;29;20063;-93
2022/01/23 10:11:43;;;;;;;26.58;15.98;;;4.20;99.90;;;;;;4934377;29;20058;-94
2022/01/23 10:14:09;;;;;;;30.52;16.98;;;4.50;99.90;;;;;;4935827;29;20035;-94
2022/01/23 10:16:35;;;;;;;29.52;16.48;;;4.40;99.90;;;;;;4934174;29;20032;-93
2022/01/23 10:19:03;;;;;;;29.45;17.25;;;4.60;99.90;;;;;;4936160;29;20035;-93
2022/01/23 10:21:31;;;;;;;27.63;16.30;;;4.70;99.90;;;;;;4937703;29;20027;-89
2022/01/23 10:23:58;;;;;;;27.55;15.60;;;4.40;99.90;;;;;;4935807;29;20028;-90
2022/01/23 10:26:44;;;;;;;26.63;16.75;;;4.60;99.90;;;;;;4938701;29;20031;-90
2022/01/23 10:29:29;;;;;;;29.27;16.73;;;4.20;99.90;;;;;;4938009;29;20032;-88
2022/01/23 10:32:25;;;;;;;30.58;17.08;;;4.20;99.90;;;;;;4938998;29;20416;-91
2022/01/23 10:34:54;;;;;;;29.08;17.52;;;4.30;99.90;;;;;;4949494;29;20023;-94
2022/01/23 10:37:43;;;;;;;30.08;16.80;;;4.80;99.90;;;;;;4949711;29;20034;-92
2022/01/23 10:40:30;;;;;;;28.73;17.00;;;4.30;99.90;;;;;;4945195;29;20396;-92
2022/01/23 10:48:48;;;;;;;31.70;18.30;;;4.50;99.90;;;;;;4930491;29;20027;-92
2022/01/23 10:51:36;;;;;;;27.40;17.98;;;4.50;99.90;;;;;;4935624;28;20052;-92
2022/01/23 10:54:14;;;;;;;35.15;18.10;;;4.50;99.90;;;;;;4935908;29;20028;-92
2022/01/23 10:56:49;;;;;;;30.52;16.75;;;4.60;99.90;;;;;;4936560;29;20119;-93
2022/01/23 10:59:15;;;;;;;29.20;17.88;;;4.50;99.90;;;;;;4936713;29;20023;-92
2022/01/23 11:01:58;;;;;;;30.33;17.85;;;4.40;99.90;;;;;;4933535;29;20078;-92
2022/01/23 11:04:23;;;;;;;28.75;16.70;;;4.70;99.90;;;;;;4934250;29;20503;-94
2022/01/23 11:07:05;;;;;;;27.88;17.55;;;4.70;99.90;;;;;;4938296;29;20040;-94
2022/01/23 11:09:36;;;;;;;32.60;18.48;;;4.40;99.90;;;;;;4937094;29;20063;-93
2022/01/23 11:12:30;;;;;;;35.17;20.48;;;4.80;99.90;;;;;;4941797;29;20167;-96
2022/01/23 11:17:49;;;;;;;39.60;23.50;;;4.70;99.90;;;;;;4931205;29;20058;-93
2022/01/23 11:20:32;;;;;;;33.90;18.45;;;4.70;99.90;;;;;;4939821;29;20412;-95
2022/01/23 11:23:22;;;;;;;33.17;17.38;;;4.50;99.90;;;;;;4937684;29;20488;-92
2022/01/23 11:25:57;;;;;;;30.58;17.88;;;4.50;99.90;;;;;;4937928;29;20046;-95
2022/01/23 11:28:44;;;;;;;32.80;19.13;;;4.50;99.90;;;;;;4937448;29;20028;-87
2022/01/23 11:31:19;;;;;;;33.65;18.10;;;5.10;99.90;;;;;;4936502;29;20570;-89
2022/01/23 11:33:46;;;;;;;28.67;18.70;;;4.60;99.90;;;;;;4936147;29;20051;-90
2022/01/23 11:36:12;;;;;;;34.90;18.75;;;5.10;99.90;;;;;;4935941;29;20060;-94
2022/01/23 11:38:40;;;;;;;33.75;19.33;;;5.20;99.90;;;;;;4936954;29;20042;-94
2022/01/23 11:55:33;;;;;;;30.58;18.00;;;5.50;99.90;;;;;;4936664;29;20564;-90
2022/01/23 11:57:59;;;;;;;33.03;19.25;;;6.00;99.90;;;;;;4923373;29;20040;-89
2022/01/23 12:00:30;;;;;;;33.67;20.70;;;5.30;99.90;;;;;;4936414;29;20544;-88
2022/01/23 12:03:15;;;;;;;31.95;17.48;;;5.40;99.90;;;;;;4936291;29;20412;-92
2022/01/23 12:05:44;;;;;;;32.35;19.20;;;5.10;99.90;;;;;;4936750;29;20027;-93
2022/01/23 12:08:18;;;;;;;32.50;19.83;;;5.10;99.90;;;;;;4937712;29;20043;-93
2022/01/23 12:11:38;;;;;;;30.88;19.27;;;5.10;99.90;;;;;;4936064;29;20036;-93
2022/01/23 12:17:01;;;;;;;26.80;17.23;;;5.10;99.90;;;;;;4936225;29;20035;-96
2022/01/23 12:19:31;;;;;;;27.67;18.13;;;5.10;99.90;;;;;;4936659;29;20015;-86
2022/01/23 12:21:59;;;;;;;30.25;18.40;;;4.90;99.90;;;;;;4937120;29;20032;-95
2022/01/23 12:24:26;;;;;;;31.38;19.33;;;4.90;99.90;;;;;;4937011;29;20028;-95
2022/01/23 12:27:17;;;;;;;26.13;17.77;;;5.00;99.90;;;;;;4935939;29;20032;-94
2022/01/23 12:29:43;;;;;;;30.67;18.13;;;5.20;99.90;;;;;;4951498;29;20147;-94
2022/01/23 12:32:26;;;;;;;31.90;20.63;;;5.50;99.90;;;;;;4936554;29;20036;-94
2022/01/23 12:34:54;;;;;;;32.10;19.65;;;5.10;99.90;;;;;;4937643;29;20028;-95
2022/01/23 12:37:20;;;;;;;31.52;19.67;;;5.20;99.90;;;;;;4937294;29;20024;-94
2022/01/23 12:40:24;;;;;;;29.45;17.98;;;5.30;99.90;;;;;;4935727;29;20108;-92
2022/01/23 12:43:18;;;;;;;30.45;18.55;;;5.40;99.90;;;;;;4938113;28;20063;-95
2022/01/23 12:46:04;;;;;;;28.67;18.60;;;5.30;99.90;;;;;;4936427;29;20035;-95
2022/01/23 12:48:39;;;;;;;31.30;19.98;;;5.20;99.90;;;;;;4935136;29;20036;-96
2022/01/23 12:51:32;;;;;;;33.70;21.92;;;5.10;99.90;;;;;;4937771;29;20477;-95
2022/01/23 12:53:58;;;;;;;32.65;20.55;;;5.00;99.90;;;;;;4935864;29;20071;-96
2022/01/23 12:56:32;;;;;;;33.58;21.25;;;5.40;99.90;;;;;;4936697;29;20042;-96
2022/01/23 12:59:06;;;;;;;35.50;21.83;;;5.20;99.90;;;;;;4936671;29;20128;-96
2022/01/23 13:01:33;;;;;;;31.65;20.13;;;5.10;99.90;;;;;;4936589;29;20048;-95
2022/01/23 13:04:01;;;;;;;33.92;20.52;;;4.80;99.90;;;;;;4935493;29;20036;-96
2022/01/23 13:06:53;;;;;;;33.85;20.67;;;5.00;99.90;;;;;;4937390;29;20028;-95
2022/01/23 13:09:39;;;;;;;33.75;19.88;;;4.90;99.90;;;;;;4937076;29;20039;-96
2022/01/23 13:14:41;;;;;;;32.60;20.27;;;5.30;99.90;;;;;;4936261;29;20036;-95
2022/01/23 13:17:30;;;;;;;30.20;19.20;;;5.30;99.90;;;;;;4936645;29;20036;-95
2022/01/23 13:30:55;;;;;;;30.80;19.02;;;5.30;99.90;;;;;;4935166;29;20102;-96
2022/01/23 13:33:24;;;;;;;31.35;20.10;;;4.80;99.90;;;;;;4935169;29;20027;-95
2022/01/23 13:35:52;;;;;;;31.23;19.50;;;4.70;99.90;;;;;;4934110;29;20035;-96
2022/01/23 13:38:20;;;;;;;31.77;21.20;;;5.20;99.90;;;;;;4935375;29;20055;-95
2022/01/23 13:40:56;;;;;;;31.08;19.67;;;5.30;99.90;;;;;;4934029;29;20036;-96
2022/01/23 14:02:17;;;;;;;29.80;18.63;;;4.90;99.90;;;;;;4934540;29;20051;-96
2022/01/23 14:04:51;;;;;;;30.20;17.85;;;4.60;99.90;;;;;;4933289;29;20118;-95
2022/01/23 14:07:21;;;;;;;26.90;17.90;;;4.40;99.90;;;;;;4936273;29;20054;-96
2022/01/23 14:09:47;;;;;;;29.73;19.73;;;4.40;99.90;;;;;;4920032;29;20031;-96
2022/01/23 14:12:15;;;;;;;28.33;19.38;;;5.00;99.90;;;;;;4935843;29;20575;-96
2022/01/23 14:14:56;;;;;;;27.77;18.63;;;4.70;99.90;;;;;;4936354;29;20028;-96
2022/01/23 14:17:25;;;;;;;28.90;17.20;;;4.70;99.90;;;;;;4935997;29;20040;-96
2022/01/23 14:20:11;;;;;;;29.02;17.70;;;5.10;99.90;;;;;;4934817;29;20027;-96
2022/01/23 14:22:41;;;;;;;27.65;17.25;;;4.30;99.90;;;;;;4934969;29;20515;-96
2022/01/23 14:25:06;;;;;;;29.67;17.80;;;4.40;99.90;;;;;;4936191;29;20032;-95
2022/01/23 14:27:32;;;;;;;27.20;17.33;;;4.50;99.90;;;;;;4935383;29;20027;-96
2022/01/23 14:29:59;;;;;;;28.83;16.98;;;4.60;99.90;;;;;;4935863;29;20036;-96
2022/01/23 14:32:39;;;;;;;27.90;17.17;;;4.40;99.90;;;;;;4936024;29;20079;-95
2022/01/23 14:35:16;;;;;;;24.70;15.75;;;4.50;99.90;;;;;;4935861;29;20485;-95
2022/01/23 14:37:44;;;;;;;26.75;17.98;;;4.60;99.90;;;;;;4934720;29;20023;-95
2022/01/23 14:40:20;;;;;;;25.70;16.60;;;4.70;99.90;;;;;;4937826;29;20527;-96
2022/01/23 14:42:59;;;;;;;25.40;16.45;;;4.60;99.90;;;;;;4939012;29;20102;-96
2022/01/23 14:45:27;;;;;;;23.80;15.63;;;4.60;99.90;;;;;;4936646;29;20030;-96
2022/01/23 14:47:52;;;;;;;25.67;15.27;;;4.60;99.90;;;;;;4940227;29;20047;-96
2022/01/23 14:50:20;;;;;;;24.23;14.88;;;4.50;99.90;;;;;;4938888;29;20087;-96
2022/01/23 14:52:48;;;;;;;21.63;13.90;;;4.30;99.90;;;;;;4938966;29;20024;-96
2022/01/23 14:55:13;;;;;;;21.15;13.93;;;4.20;99.90;;;;;;4937646;29;20385;-95
2022/01/23 14:57:40;;;;;;;24.23;13.90;;;4.60;99.90;;;;;;4938257;29;20039;-96
2022/01/23 15:00:10;;;;;;;24.55;14.95;;;4.30;99.90;;;;;;4939424;29;20358;-95
2022/01/23 15:02:36;;;;;;;24.30;15.07;;;4.10;99.90;;;;;;4939419;29;20043;-96
2022/01/23 15:05:03;;;;;;;27.55;16.13;;;4.10;99.90;;;;;;4938538;29;20035;-95
2022/01/23 15:07:40;;;;;;;25.80;15.77;;;4.00;99.90;;;;;;4938719;29;20032;-96
2022/01/23 15:10:07;;;;;;;24.75;15.25;;;4.40;99.90;;;;;;4938671;29;20048;-96
2022/01/23 15:12:33;;;;;;;24.55;15.95;;;3.90;99.90;;;;;;4938203;29;20046;-96
2022/01/23 15:14:59;;;;;;;27.42;16.48;;;4.40;99.90;;;;;;4938149;29;20032;-95
2022/01/23 15:17:26;;;;;;;24.52;15.25;;;3.90;99.90;;;;;;4937745;29;20032;-96
2022/01/23 15:19:52;;;;;;;25.33;15.20;;;4.20;99.90;;;;;;4937682;29;20027;-95
2022/01/23 15:22:19;;;;;;;22.90;13.75;;;4.40;99.90;;;;;;4937714;29;20040;-95
2022/01/23 15:24:45;;;;;;;25.52;14.27;;;3.90;99.90;;;;;;4923505;29;20480;-96
2022/01/23 15:27:11;;;;;;;25.77;14.60;;;4.00;99.90;;;;;;4938303;29;20401;-96
2022/01/23 15:29:38;;;;;;;24.58;14.75;;;4.00;99.90;;;;;;4937536;29;20034;-95
2022/01/23 15:32:04;;;;;;;24.25;14.35;;;4.40;99.90;;;;;;4937487;29;20032;-95
2022/01/23 15:34:30;;;;;;;27.40;15.68;;;3.80;99.90;;;;;;4938067;29;20020;-96
2022/01/23 15:36:56;;;;;;;22.85;14.48;;;3.90;99.90;;;;;;4937150;29;20432;-95
2022/01/23 15:39:25;;;;;;;26.60;14.63;;;4.30;99.90;;;;;;4938072;29;20048;-95
2022/01/23 15:41:50;;;;;;;23.83;14.52;;;4.00;99.90;;;;;;4937550;29;20043;-95
2022/01/23 15:44:16;;;;;;;25.52;14.70;;;4.00;99.90;;;;;;4936976;29;20505;-96
2022/01/23 15:46:43;;;;;;;21.45;13.30;;;4.00;99.90;;;;;;4937115;29;20034;-95
2022/01/23 15:49:09;;;;;;;22.02;13.00;;;4.30;99.90;;;;;;4938444;29;20054;-94
2022/01/23 15:51:36;;;;;;;27.45;14.57;;;3.90;99.90;;;;;;4937362;29;20504;-95
2022/01/23 15:54:03;;;;;;;25.33;15.27;;;3.90;99.90;;;;;;4938306;29;20028;-95
2022/01/23 15:56:29;;;;;;;22.73;13.82;;;4.00;99.90;;;;;;4937806;29;20036;-95
2022/01/23 15:58:54;;;;;;;22.77;13.63;;;3.90;99.90;;;;;;4936855;29;20038;-96
2022/01/23 16:01:21;;;;;;;23.55;14.52;;;3.90;99.90;;;;;;4936874;29;20027;-95
2022/01/23 16:03:46;;;;;;;24.25;14.35;;;3.90;99.90;;;;;;4937364;29;20082;-96
2022/01/23 16:06:12;;;;;;;21.10;13.05;;;4.30;99.90;;;;;;4937450;29;20028;-95
2022/01/23 16:08:38;;;;;;;24.08;14.60;;;3.90;99.90;;;;;;4936881;29;20035;-96
2022/01/23 16:11:05;;;;;;;27.35;16.23;;;3.80;99.90;;;;;;4936707;29;20052;-96
2022/01/23 16:13:31;;;;;;;24.38;14.60;;;3.70;99.90;;;;;;4936840;29;20046;-95
2022/01/23 16:15:58;;;;;;;21.85;12.68;;;3.70;99.90;;;;;;4937551;29;20039;-95
2022/01/23 16:18:24;;;;;;;24.05;14.10;;;3.80;99.90;;;;;;4937322;29;20023;-96
2022/01/23 16:20:50;;;;;;;26.27;14.68;;;4.30;99.90;;;;;;4938298;29;20026;-96